Time;durP1;ratioP1;P1;durP2;ratioP2;P2;SDS_P1;SDS_P2;PMS_P1;PMS_P2;Temp;Humidity;BMP_temperature;BMP_pressure;BME280_temperature;BME280_humidity;BME280_pressure;Samples;Min_cycle;Max_cycle;Signal;HPM_P1;HPM_P2
2021/07/04 00:01:24;;;;;;;7.75;2.42;;;24.50;99.90;;;;;;5013109;28;20057;-77
2021/07/04 00:03:50;;;;;;;3.28;1.58;;;24.40;99.90;;;;;;4995554;28;20042;-78
2021/07/04 00:06:16;;;;;;;3.53;1.80;;;24.30;99.90;;;;;;5013376;28;20026;-78
2021/07/04 00:08:41;;;;;;;11.77;1.90;;;24.30;99.90;;;;;;5012704;28;20050;-77
2021/07/04 00:11:08;;;;;;;9.27;2.13;;;24.30;99.90;;;;;;5013372;28;20485;-78
2021/07/04 00:13:35;;;;;;;2.80;2.17;;;24.20;99.90;;;;;;5013290;28;20033;-78
2021/07/04 00:16:02;;;;;;;3.20;1.67;;;24.10;99.90;;;;;;5013149;28;20115;-77
2021/07/04 00:18:30;;;;;;;2.38;1.83;;;24.10;99.90;;;;;;5013246;28;20026;-77
2021/07/04 00:20:58;;;;;;;3.83;1.98;;;24.00;99.90;;;;;;5010848;28;20018;-76
2021/07/04 00:23:25;;;;;;;9.65;1.77;;;24.00;99.90;;;;;;5012998;28;20030;-76
2021/07/04 00:25:52;;;;;;;3.45;1.80;;;24.10;99.90;;;;;;5013061;28;20030;-76
2021/07/04 00:28:18;;;;;;;1.95;1.67;;;24.10;99.90;;;;;;5012911;28;20026;-77
2021/07/04 00:30:44;;;;;;;5.13;1.98;;;24.00;99.90;;;;;;5012191;28;20065;-77
2021/07/04 00:33:10;;;;;;;4.50;1.83;;;24.00;99.90;;;;;;5011990;28;20443;-77
2021/07/04 00:35:36;;;;;;;2.33;1.70;;;24.00;99.90;;;;;;5011361;28;20068;-76
2021/07/04 00:38:07;;;;;;;2.15;1.70;;;24.00;99.90;;;;;;5011778;28;20053;-76
2021/07/04 00:40:33;;;;;;;2.38;1.98;;;24.00;99.90;;;;;;5011431;28;20475;-76
2021/07/04 00:42:59;;;;;;;1.85;1.60;;;24.00;99.90;;;;;;5011953;28;20021;-76
2021/07/04 00:45:26;;;;;;;4.38;3.03;;;24.00;99.90;;;;;;5009276;28;20114;-77
2021/07/04 00:47:53;;;;;;;3.50;2.00;;;24.10;99.90;;;;;;5011820;28;20514;-76
2021/07/04 00:50:21;;;;;;;6.10;2.03;;;24.10;99.90;;;;;;5011566;28;20032;-77
2021/07/04 00:52:47;;;;;;;4.70;1.88;;;24.10;99.90;;;;;;5011696;28;20022;-77
2021/07/04 00:55:15;;;;;;;2.95;2.15;;;24.10;99.90;;;;;;5011619;28;20032;-76
2021/07/04 00:57:42;;;;;;;3.50;1.77;;;24.00;99.90;;;;;;5011285;28;20091;-76
2021/07/04 01:00:10;;;;;;;3.58;2.03;;;24.00;99.90;;;;;;5011291;28;20021;-76
2021/07/04 01:02:37;;;;;;;5.35;2.00;;;24.00;99.90;;;;;;5011083;28;20021;-75
2021/07/04 01:05:12;;;;;;;2.72;2.05;;;23.90;99.90;;;;;;5010671;28;20061;-77
2021/07/04 01:07:39;;;;;;;4.70;1.88;;;23.80;99.90;;;;;;5005751;28;20022;-77
2021/07/04 01:10:09;;;;;;;3.35;1.83;;;23.80;99.90;;;;;;5011126;28;20038;-77
2021/07/04 01:12:36;;;;;;;2.75;1.98;;;23.80;99.90;;;;;;5011632;28;20022;-76
2021/07/04 01:15:05;;;;;;;3.80;1.88;;;23.90;99.90;;;;;;5011138;28;20113;-76
2021/07/04 01:17:33;;;;;;;13.25;2.30;;;23.80;99.90;;;;;;5011360;28;20108;-75
2021/07/04 01:19:59;;;;;;;6.55;2.60;;;23.80;99.90;;;;;;5010819;28;20022;-76
2021/07/04 01:22:26;;;;;;;8.18;1.90;;;23.80;99.90;;;;;;5011025;28;20028;-77
2021/07/04 01:24:52;;;;;;;2.83;1.75;;;23.80;99.90;;;;;;5010528;28;20026;-77
2021/07/04 01:27:18;;;;;;;3.65;2.40;;;23.80;99.90;;;;;;5010866;28;20029;-77
2021/07/04 01:29:44;;;;;;;3.60;1.75;;;23.80;99.90;;;;;;5010920;28;20482;-75
2021/07/04 01:32:10;;;;;;;6.82;2.40;;;23.80;99.90;;;;;;5010742;28;20072;-76
2021/07/04 01:34:35;;;;;;;2.63;1.70;;;23.70;99.90;;;;;;5010802;28;20434;-76
2021/07/04 01:37:01;;;;;;;10.57;2.67;;;23.70;99.90;;;;;;5000038;28;20030;-76
2021/07/04 01:39:28;;;;;;;5.20;1.60;;;23.70;99.90;;;;;;5011043;28;20057;-77
2021/07/04 01:41:55;;;;;;;5.20;2.00;;;23.70;99.90;;;;;;5011046;28;20106;-77
2021/07/04 01:44:20;;;;;;;7.38;1.70;;;23.70;99.90;;;;;;5010103;28;20038;-77
2021/07/04 01:46:46;;;;;;;2.97;1.63;;;23.70;99.90;;;;;;5010358;28;20506;-78
2021/07/04 01:49:12;;;;;;;2.25;1.60;;;23.60;99.90;;;;;;5010935;28;20092;-78
2021/07/04 01:51:38;;;;;;;3.47;1.77;;;23.60;99.90;;;;;;5010876;28;20045;-77
2021/07/04 01:54:03;;;;;;;4.10;1.73;;;23.50;99.90;;;;;;5010984;28;20479;-77
2021/07/04 01:56:29;;;;;;;3.40;1.70;;;23.50;99.90;;;;;;5010978;28;20433;-78
2021/07/04 01:58:55;;;;;;;8.27;1.70;;;23.50;99.90;;;;;;5010558;28;20096;-77
2021/07/04 02:01:20;;;;;;;5.72;1.90;;;23.50;99.90;;;;;;5010593;28;20447;-77
2021/07/04 02:03:46;;;;;;;5.07;2.25;;;23.40;99.90;;;;;;5010677;28;20018;-78
2021/07/04 02:06:12;;;;;;;4.35;1.92;;;23.50;99.90;;;;;;5009840;28;20497;-77
2021/07/04 02:08:38;;;;;;;5.47;2.00;;;23.50;99.90;;;;;;5010691;28;20085;-77
2021/07/04 02:11:04;;;;;;;4.50;2.40;;;23.60;99.90;;;;;;5010670;28;20053;-77
2021/07/04 02:13:30;;;;;;;3.58;2.10;;;23.50;99.90;;;;;;5010809;28;20018;-77
2021/07/04 02:15:55;;;;;;;6.90;2.20;;;23.50;99.90;;;;;;5010594;28;20087;-77
2021/07/04 02:18:21;;;;;;;7.82;2.03;;;23.60;99.90;;;;;;5010215;28;20463;-77
2021/07/04 02:20:50;;;;;;;14.45;2.10;;;23.60;99.90;;;;;;5010255;28;20094;-77
2021/07/04 02:23:17;;;;;;;4.15;2.17;;;23.70;99.90;;;;;;5009982;28;20026;-77
2021/07/04 02:25:45;;;;;;;6.47;2.10;;;23.70;99.90;;;;;;5009839;28;20049;-77
2021/07/04 02:28:14;;;;;;;3.42;1.73;;;23.70;99.90;;;;;;5009627;28;20030;-77
2021/07/04 02:30:41;;;;;;;4.22;2.22;;;23.70;99.90;;;;;;5002250;28;20113;-78
2021/07/04 02:33:09;;;;;;;3.78;1.88;;;23.60;99.90;;;;;;5010412;28;20022;-77
2021/07/04 02:35:37;;;;;;;5.22;2.00;;;23.60;99.90;;;;;;5009627;28;20038;-77
2021/07/04 02:38:05;;;;;;;4.82;2.20;;;23.50;99.90;;;;;;5009742;28;20018;-76
2021/07/04 02:40:32;;;;;;;3.10;2.10;;;23.50;99.90;;;;;;5009925;28;20470;-77
2021/07/04 02:42:58;;;;;;;4.10;1.90;;;23.40;99.90;;;;;;5010368;28;20029;-76
2021/07/04 02:45:24;;;;;;;6.55;2.50;;;23.30;99.90;;;;;;5013897;28;20038;-76
2021/07/04 02:47:50;;;;;;;6.47;2.40;;;23.30;99.90;;;;;;5013841;28;20029;-77
2021/07/04 02:50:21;;;;;;;9.65;3.25;;;23.30;99.90;;;;;;4996388;28;20057;-76
2021/07/04 02:52:51;;;;;;;9.80;3.00;;;23.30;99.90;;;;;;5014062;28;20033;-75
2021/07/04 02:55:17;;;;;;;9.57;2.60;;;23.20;99.90;;;;;;5014028;28;20356;-77
2021/07/04 02:57:43;;;;;;;6.75;2.17;;;23.20;99.90;;;;;;5009117;28;20120;-77
2021/07/04 03:00:13;;;;;;;12.23;3.15;;;23.00;99.90;;;;;;5013954;28;20021;-77
2021/07/04 03:02:38;;;;;;;3.83;2.22;;;22.90;99.90;;;;;;5013940;28;20096;-77
2021/07/04 03:05:09;;;;;;;7.40;2.20;;;22.70;99.90;;;;;;5013936;28;20490;-77
2021/07/04 03:07:36;;;;;;;6.30;1.50;;;22.60;99.90;;;;;;5013746;28;20058;-76
2021/07/04 03:10:13;;;;;;;1.95;1.63;;;22.40;99.90;;;;;;5013213;28;20050;-77
2021/07/04 03:12:40;;;;;;;2.80;1.67;;;22.40;99.90;;;;;;5013594;28;20773;-77
2021/07/04 03:15:07;;;;;;;2.28;1.70;;;22.30;99.90;;;;;;5013810;28;20036;-77
2021/07/04 03:17:33;;;;;;;3.40;2.05;;;22.20;99.90;;;;;;5013652;28;20046;-77
2021/07/04 03:19:58;;;;;;;3.58;1.50;;;22.20;99.90;;;;;;5004199;28;20445;-77
2021/07/04 03:22:24;;;;;;;3.25;1.88;;;22.20;99.90;;;;;;5014320;28;20026;-77
2021/07/04 03:24:50;;;;;;;8.25;2.15;;;22.20;99.90;;;;;;5012681;28;20030;-78
2021/07/04 03:27:17;;;;;;;7.65;1.95;;;22.20;99.90;;;;;;5014450;28;20029;-77
2021/07/04 03:29:42;;;;;;;7.30;2.05;;;22.00;99.90;;;;;;5013922;28;20022;-77
2021/07/04 03:32:08;;;;;;;6.40;2.10;;;21.80;99.90;;;;;;5014080;28;20501;-77
2021/07/04 03:34:34;;;;;;;3.83;2.08;;;21.80;99.90;;;;;;5014066;28;20035;-77
2021/07/04 03:37:00;;;;;;;4.75;2.35;;;21.70;99.90;;;;;;5013856;28;20076;-77
2021/07/04 03:39:26;;;;;;;4.45;2.20;;;21.70;99.90;;;;;;5014117;28;20021;-77
2021/07/04 03:41:51;;;;;;;5.20;2.60;;;21.60;99.90;;;;;;5014134;28;20030;-77
2021/07/04 03:44:17;;;;;;;7.50;2.33;;;21.60;99.90;;;;;;5013639;28;20534;-76
2021/07/04 03:46:43;;;;;;;8.02;2.75;;;21.50;99.90;;;;;;5012225;28;20117;-76
2021/07/04 03:49:09;;;;;;;7.05;2.65;;;21.50;99.90;;;;;;5013230;28;20026;-77
2021/07/04 03:51:35;;;;;;;3.47;2.35;;;21.50;99.90;;;;;;5013501;28;20053;-77
2021/07/04 03:54:01;;;;;;;5.78;1.90;;;21.50;99.90;;;;;;5013531;28;20058;-76
2021/07/04 03:56:26;;;;;;;2.72;2.00;;;21.30;99.90;;;;;;5013351;28;20033;-77
2021/07/04 03:58:52;;;;;;;4.00;2.28;;;21.20;99.90;;;;;;5012962;28;20029;-77
2021/07/04 04:01:19;;;;;;;6.75;2.20;;;21.10;99.90;;;;;;5013239;28;20030;-77
2021/07/04 04:03:49;;;;;;;2.90;2.30;;;21.00;99.90;;;;;;5013439;28;20042;-77
2021/07/04 04:06:15;;;;;;;7.30;2.78;;;20.90;99.90;;;;;;5012843;28;20058;-78
2021/07/04 04:08:42;;;;;;;4.45;2.70;;;20.90;99.90;;;;;;5013036;28;20095;-78
2021/07/04 04:11:09;;;;;;;5.65;2.25;;;20.90;99.90;;;;;;5013258;28;20386;-78
2021/07/04 04:13:35;;;;;;;5.40;2.28;;;21.00;99.90;;;;;;5013249;28;20029;-75
2021/07/04 04:16:01;;;;;;;4.18;2.28;;;21.10;99.90;;;;;;5012984;28;20025;-75
2021/07/04 04:18:27;;;;;;;4.68;2.15;;;21.10;99.90;;;;;;5012039;28;20037;-75
2021/07/04 04:20:55;;;;;;;4.85;2.08;;;21.20;99.90;;;;;;5012737;28;20034;-75
2021/07/04 04:23:21;;;;;;;3.72;1.70;;;21.30;99.90;;;;;;5012949;28;20010;-75
2021/07/04 04:25:47;;;;;;;1.70;1.50;;;21.40;99.90;;;;;;5013079;28;20461;-76
2021/07/04 04:28:12;;;;;;;3.22;1.65;;;21.40;99.90;;;;;;5011689;28;20053;-76
2021/07/04 04:30:38;;;;;;;2.45;2.15;;;21.50;99.90;;;;;;5011680;28;20494;-76
2021/07/04 04:33:04;;;;;;;3.80;1.85;;;21.50;99.90;;;;;;5011567;28;20474;-76
2021/07/04 04:35:30;;;;;;;11.27;1.85;;;21.50;99.90;;;;;;5011272;28;20057;-77
2021/07/04 04:37:56;;;;;;;9.95;1.80;;;21.50;99.90;;;;;;5011390;28;20057;-77
2021/07/04 04:40:22;;;;;;;2.85;1.73;;;21.40;99.90;;;;;;5010503;28;20037;-76
2021/07/04 04:42:48;;;;;;;6.25;1.90;;;21.40;99.90;;;;;;5012030;28;20478;-75
2021/07/04 04:45:14;;;;;;;7.60;1.83;;;21.40;99.90;;;;;;5011803;28;20041;-76
2021/07/04 04:47:40;;;;;;;5.75;2.10;;;21.40;99.90;;;;;;5012357;28;20092;-77
2021/07/04 04:50:07;;;;;;;8.20;2.70;;;21.50;99.90;;;;;;5012440;28;20553;-76
2021/07/04 04:52:33;;;;;;;3.50;1.88;;;21.60;99.90;;;;;;5012324;28;20029;-77
2021/07/04 04:54:58;;;;;;;5.05;1.80;;;21.60;99.90;;;;;;5012357;28;20026;-77
2021/07/04 04:57:24;;;;;;;8.23;2.22;;;21.60;99.90;;;;;;5011895;28;20033;-76
2021/07/04 04:59:50;;;;;;;2.90;2.08;;;21.70;99.90;;;;;;5012277;28;20099;-77
2021/07/04 05:02:15;;;;;;;4.50;2.70;;;21.70;99.90;;;;;;4994566;28;20030;-76
2021/07/04 05:04:41;;;;;;;5.88;2.20;;;21.80;99.90;;;;;;5005153;28;20026;-77
2021/07/04 05:07:08;;;;;;;11.18;2.55;;;21.80;99.90;;;;;;5011202;28;20041;-76
2021/07/04 05:09:34;;;;;;;3.47;2.80;;;21.90;99.90;;;;;;5012211;28;20050;-76
2021/07/04 05:12:00;;;;;;;3.97;2.20;;;21.90;99.90;;;;;;5012147;28;20432;-77
2021/07/04 05:14:25;;;;;;;2.75;1.50;;;22.00;99.90;;;;;;5012280;28;20022;-76
2021/07/04 05:16:51;;;;;;;3.50;1.98;;;22.10;99.90;;;;;;5011917;28;20038;-77
2021/07/04 05:19:17;;;;;;;3.60;1.80;;;22.10;99.90;;;;;;5011494;28;20362;-76
2021/07/04 05:21:43;;;;;;;3.28;1.90;;;22.20;99.90;;;;;;5010963;28;20103;-77
2021/07/04 05:24:11;;;;;;;2.97;1.75;;;22.20;99.90;;;;;;5011696;28;20064;-77
2021/07/04 05:26:37;;;;;;;6.40;2.05;;;22.20;99.90;;;;;;5010998;28;20069;-77
2021/07/04 05:29:04;;;;;;;1.90;1.58;;;22.20;99.90;;;;;;5009932;28;20374;-77
2021/07/04 05:31:29;;;;;;;3.00;1.75;;;22.20;99.90;;;;;;5010329;28;20022;-76
2021/07/04 05:33:55;;;;;;;2.17;1.65;;;22.30;99.90;;;;;;5011042;28;20041;-77
2021/07/04 05:36:21;;;;;;;5.75;2.03;;;22.30;99.90;;;;;;5010704;28;20018;-76
2021/07/04 05:38:46;;;;;;;10.30;2.00;;;22.30;99.90;;;;;;5010486;28;20030;-77
2021/07/04 05:41:14;;;;;;;3.50;2.22;;;22.20;99.90;;;;;;5011155;28;20022;-77
2021/07/04 05:43:41;;;;;;;2.92;2.30;;;22.20;99.90;;;;;;5009677;28;20033;-77
2021/07/04 05:46:07;;;;;;;5.32;1.98;;;22.10;99.90;;;;;;5010036;28;20053;-76
2021/07/04 05:48:35;;;;;;;2.00;1.80;;;22.10;99.90;;;;;;5010944;28;20459;-77
2021/07/04 05:51:01;;;;;;;2.20;1.88;;;22.10;99.90;;;;;;5010343;28;20061;-77
2021/07/04 05:53:27;;;;;;;5.75;2.58;;;22.10;99.90;;;;;;5010604;28;20034;-76
2021/07/04 05:55:53;;;;;;;7.20;2.25;;;22.20;99.90;;;;;;5011988;28;20083;-78
2021/07/04 05:58:19;;;;;;;6.38;2.90;;;22.20;99.90;;;;;;5011760;28;20042;-77
2021/07/04 06:00:46;;;;;;;6.30;3.28;;;22.20;99.90;;;;;;5011499;28;20108;-77
2021/07/04 06:03:12;;;;;;;5.68;2.72;;;22.20;99.90;;;;;;5010065;28;20018;-78
2021/07/04 06:05:37;;;;;;;2.83;2.53;;;22.20;99.90;;;;;;5009980;28;20092;-77
2021/07/04 06:08:04;;;;;;;3.60;2.50;;;22.10;99.90;;;;;;5010580;28;20038;-77
2021/07/04 06:10:30;;;;;;;5.38;2.75;;;22.10;99.90;;;;;;5009306;28;20547;-77
2021/07/04 06:12:56;;;;;;;7.05;2.92;;;22.00;99.90;;;;;;5010945;28;20018;-75
2021/07/04 06:15:21;;;;;;;4.38;2.72;;;21.90;99.90;;;;;;5011803;28;20084;-76
2021/07/04 06:17:47;;;;;;;6.53;2.65;;;21.90;99.90;;;;;;5011256;28;20484;-76
2021/07/04 06:20:17;;;;;;;3.47;2.63;;;21.90;99.90;;;;;;5014618;28;20029;-77
2021/07/04 06:22:44;;;;;;;4.43;2.75;;;21.90;99.90;;;;;;5014341;28;20105;-77
2021/07/04 06:25:12;;;;;;;3.55;2.58;;;21.90;99.90;;;;;;5014629;28;20048;-76
2021/07/04 06:27:41;;;;;;;3.33;2.55;;;22.00;99.90;;;;;;5014615;28;20026;-77
2021/07/04 06:30:09;;;;;;;3.03;2.72;;;22.10;99.90;;;;;;5014541;28;20092;-77
2021/07/04 06:32:35;;;;;;;9.18;2.80;;;22.20;99.90;;;;;;5014761;28;20026;-76
2021/07/04 06:35:01;;;;;;;3.95;2.75;;;22.20;99.90;;;;;;5014671;28;20018;-76
2021/07/04 06:37:27;;;;;;;2.90;2.50;;;22.40;99.90;;;;;;5013986;28;20029;-77
2021/07/04 06:39:53;;;;;;;5.32;2.80;;;22.50;99.90;;;;;;5012563;28;20092;-77
2021/07/04 06:42:19;;;;;;;5.15;2.50;;;22.60;99.90;;;;;;5014242;28;20486;-77
2021/07/04 06:44:45;;;;;;;7.47;2.58;;;22.70;99.90;;;;;;5012824;28;20458;-77
2021/07/04 06:47:11;;;;;;;5.45;3.15;;;22.80;99.90;;;;;;5013534;28;20463;-77
2021/07/04 06:49:36;;;;;;;4.50;2.60;;;23.00;99.90;;;;;;5014183;28;20028;-77
2021/07/04 06:52:02;;;;;;;2.78;2.40;;;23.00;99.90;;;;;;5013938;28;20107;-76
2021/07/04 06:54:28;;;;;;;2.47;2.28;;;23.10;99.90;;;;;;5013862;28;20045;-80
2021/07/04 06:56:54;;;;;;;4.72;2.85;;;23.20;99.90;;;;;;5013778;28;20363;-78
2021/07/04 06:59:19;;;;;;;3.03;2.20;;;23.20;99.90;;;;;;5014039;28;20041;-78
2021/07/04 07:01:45;;;;;;;2.50;2.20;;;23.20;99.90;;;;;;5014529;28;20432;-79
2021/07/04 07:04:13;;;;;;;6.30;2.28;;;23.20;99.90;;;;;;5011831;28;20037;-79
2021/07/04 07:06:39;;;;;;;4.38;2.58;;;23.20;99.90;;;;;;5012239;28;20061;-80
2021/07/04 07:09:05;;;;;;;4.40;2.67;;;23.30;99.90;;;;;;5014412;28;20087;-78
2021/07/04 07:11:31;;;;;;;6.38;2.97;;;23.30;99.90;;;;;;5013781;28;20119;-79
2021/07/04 07:13:57;;;;;;;4.75;2.72;;;23.40;99.90;;;;;;5014154;28;20528;-78
2021/07/04 07:16:22;;;;;;;4.45;2.60;;;23.50;99.90;;;;;;5014458;28;20022;-79
2021/07/04 07:18:48;;;;;;;5.47;2.90;;;23.50;99.90;;;;;;5014046;28;20022;-73
2021/07/04 07:21:14;;;;;;;3.90;2.80;;;23.40;99.90;;;;;;5013895;28;20030;-75
2021/07/04 07:23:40;;;;;;;2.80;2.22;;;23.40;99.90;;;;;;5013445;28;20026;-75
2021/07/04 07:26:05;;;;;;;3.60;2.30;;;23.40;99.90;;;;;;5013628;28;20125;-75
2021/07/04 07:28:31;;;;;;;2.40;2.20;;;23.40;99.90;;;;;;5013759;28;20068;-73
2021/07/04 07:30:57;;;;;;;2.92;2.40;;;23.30;99.90;;;;;;5012995;28;20389;-76
2021/07/04 07:33:23;;;;;;;9.15;2.95;;;23.30;99.90;;;;;;5008661;28;20728;-78
2021/07/04 07:35:51;;;;;;;4.95;2.92;;;23.30;99.90;;;;;;5012445;28;20025;-77
2021/07/04 07:38:20;;;;;;;3.35;2.42;;;23.20;99.90;;;;;;5014070;28;20370;-77
2021/07/04 07:40:46;;;;;;;4.80;2.40;;;23.20;99.90;;;;;;5013640;28;20109;-77
2021/07/04 07:43:11;;;;;;;6.03;2.42;;;23.10;99.90;;;;;;5014037;28;20538;-78
2021/07/04 07:45:40;;;;;;;4.72;2.80;;;23.10;99.90;;;;;;5013313;28;20025;-77
2021/07/04 07:48:05;;;;;;;5.72;2.70;;;23.20;99.90;;;;;;5013608;28;20462;-78
2021/07/04 07:50:31;;;;;;;5.05;2.78;;;23.30;99.90;;;;;;5013952;28;20116;-77
2021/07/04 07:52:57;;;;;;;9.10;2.72;;;23.20;99.90;;;;;;5014067;28;20017;-79
2021/07/04 07:55:22;;;;;;;3.47;2.25;;;23.20;99.90;;;;;;5013045;28;20029;-77
2021/07/04 07:57:48;;;;;;;3.47;2.20;;;23.20;99.90;;;;;;5010676;28;20014;-78
2021/07/04 08:00:15;;;;;;;2.95;2.28;;;23.30;99.90;;;;;;5012782;28;20045;-78
2021/07/04 08:02:41;;;;;;;11.50;3.28;;;23.40;99.90;;;;;;5011358;28;20038;-78
2021/07/04 08:05:07;;;;;;;4.53;2.70;;;23.40;99.90;;;;;;5013155;28;20064;-77
2021/07/04 08:07:36;;;;;;;3.03;2.25;;;23.50;99.90;;;;;;5013385;28;20053;-78
2021/07/04 08:10:03;;;;;;;6.43;2.67;;;23.50;99.90;;;;;;5011683;28;20054;-76
2021/07/04 08:12:28;;;;;;;3.15;2.58;;;23.40;99.90;;;;;;5012132;28;20034;-78
2021/07/04 08:14:54;;;;;;;6.07;2.65;;;23.40;99.90;;;;;;5012430;28;20022;-78
2021/07/04 08:17:20;;;;;;;5.82;3.20;;;23.40;99.90;;;;;;5012384;28;20022;-79
2021/07/04 08:19:45;;;;;;;5.40;2.80;;;23.50;99.90;;;;;;5012930;28;20022;-78
2021/07/04 08:22:11;;;;;;;5.88;2.78;;;23.50;99.90;;;;;;5012902;28;20030;-78
2021/07/04 08:24:37;;;;;;;4.22;2.83;;;23.60;99.90;;;;;;5012768;28;20033;-80
2021/07/04 08:27:03;;;;;;;8.73;2.45;;;23.70;99.90;;;;;;5012404;28;20084;-81
2021/07/04 08:29:28;;;;;;;3.28;2.65;;;23.80;99.90;;;;;;5011633;28;21297;-78
2021/07/04 08:31:54;;;;;;;5.43;2.70;;;24.00;99.90;;;;;;5008710;28;20030;-78
2021/07/04 08:34:20;;;;;;;7.35;2.55;;;24.10;99.90;;;;;;5011232;28;20022;-78
2021/07/04 08:36:46;;;;;;;3.00;2.45;;;24.30;99.90;;;;;;5011705;28;20109;-78
2021/07/04 08:39:12;;;;;;;5.80;2.22;;;24.50;99.90;;;;;;5009742;28;20414;-78
2021/07/04 08:41:38;;;;;;;3.88;2.75;;;24.60;99.90;;;;;;5009956;28;20057;-79
2021/07/04 08:44:07;;;;;;;4.82;2.38;;;24.60;99.90;;;;;;5011497;28;20013;-78
2021/07/04 08:46:41;;;;;;;3.60;2.25;;;24.60;99.90;;;;;;5012162;28;20049;-78
2021/07/04 08:49:07;;;;;;;3.95;2.58;;;24.70;99.90;;;;;;5010774;28;20088;-78
2021/07/04 08:51:33;;;;;;;8.93;2.60;;;24.70;99.90;;;;;;5010619;28;20475;-78
2021/07/04 08:53:59;;;;;;;5.07;2.35;;;24.50;99.90;;;;;;5011157;28;20025;-79
2021/07/04 08:56:25;;;;;;;6.18;2.47;;;24.60;99.90;;;;;;5011136;28;20109;-78
2021/07/04 08:58:51;;;;;;;5.03;2.45;;;24.70;99.90;;;;;;5011440;28;20026;-78
2021/07/04 09:01:20;;;;;;;3.08;2.78;;;24.80;99.90;;;;;;5010928;28;20104;-78
2021/07/04 09:03:51;;;;;;;6.47;2.58;;;25.00;99.90;;;;;;4991985;28;20026;-79
2021/07/04 09:06:43;;;;;;;3.38;2.40;;;25.30;99.90;;;;;;5011249;28;20563;-78
2021/07/04 09:09:26;;;;;;;;;;;25.70;99.90;;;;;;5011935;28;20049;-79
2021/07/04 09:11:54;;;;;;;8.13;2.30;;;26.20;99.90;;;;;;5011279;28;20381;-79
2021/07/04 09:14:42;;;;;;;5.60;2.38;;;26.40;99.90;;;;;;5007692;28;20618;-79
2021/07/04 09:17:10;;;;;;;3.30;2.40;;;26.60;99.90;;;;;;5010733;28;20037;-78
2021/07/04 09:19:40;;;;;;;5.20;2.15;;;26.70;99.90;;;;;;5010388;28;20108;-77
2021/07/04 09:22:11;;;;;;;3.33;2.00;;;26.80;99.90;;;;;;5009645;28;20032;-77
2021/07/04 09:24:42;;;;;;;3.70;2.10;;;27.40;99.90;;;;;;5010725;28;20033;-78
2021/07/04 09:27:11;;;;;;;;;;;27.90;99.90;;;;;;5010229;28;20030;-75
2021/07/04 09:29:51;;;;;;;2.97;1.92;;;28.40;99.90;;;;;;5009774;28;19909;-77
2021/07/04 09:32:26;;;;;;;10.15;2.13;;;28.70;99.90;;;;;;5006883;28;20024;-78
2021/07/04 09:35:01;;;;;;;3.15;1.67;;;28.70;99.90;;;;;;5010364;28;20025;-78
2021/07/04 09:37:34;;;;;;;3.33;2.35;;;28.60;99.90;;;;;;5011539;28;20022;-78
2021/07/04 09:40:15;;;;;;;5.80;2.42;;;28.70;99.90;;;;;;5010549;28;20041;-79
2021/07/04 09:43:00;;;;;;;5.32;1.90;;;28.90;99.90;;;;;;5011045;28;20113;-77
2021/07/04 09:45:40;;;;;;;7.13;2.10;;;29.20;99.90;;;;;;4996219;28;20037;-83
2021/07/04 09:48:07;;;;;;;3.28;1.85;;;29.50;99.90;;;;;;5010892;28;20026;-79
2021/07/04 09:50:45;;;;;;;5.45;1.90;;;29.70;99.90;;;;;;5010612;28;20528;-78
2021/07/04 09:53:11;;;;;;;2.90;2.00;;;29.70;99.90;;;;;;5010178;28;20037;-78
2021/07/04 09:55:37;;;;;;;4.43;2.40;;;29.60;99.90;;;;;;5012245;28;20022;-78
2021/07/04 09:58:07;;;;;;;7.80;2.58;;;29.60;99.90;;;;;;5008990;28;20573;-78
2021/07/04 10:00:38;;;;;;;6.63;2.80;;;29.60;99.90;;;;;;5007303;28;20132;-77
2021/07/04 10:03:05;;;;;;;6.55;2.70;;;29.70;99.90;;;;;;5012480;28;20555;-77
2021/07/04 10:05:32;;;;;;;5.50;3.20;;;29.60;99.90;;;;;;5013011;28;20038;-77
2021/07/04 10:07:58;;;;;;;5.35;3.15;;;29.60;99.90;;;;;;5012967;28;20033;-81
2021/07/04 10:10:23;;;;;;;2.97;2.60;;;29.60;99.90;;;;;;5013880;28;20034;-81
2021/07/04 10:12:49;;;;;;;4.53;2.85;;;29.60;99.90;;;;;;5013011;28;20053;-80
2021/07/04 10:15:15;;;;;;;3.03;2.15;;;29.60;99.90;;;;;;5013034;28;20113;-76
2021/07/04 10:17:44;;;;;;;7.53;2.40;;;29.60;99.90;;;;;;5013309;28;20040;-76
2021/07/04 10:20:11;;;;;;;4.38;2.50;;;29.80;99.90;;;;;;5013885;28;20033;-77
2021/07/04 10:22:38;;;;;;;6.88;3.00;;;30.20;99.90;;;;;;5013744;28;20105;-78
2021/07/04 10:25:07;;;;;;;3.55;2.28;;;30.40;99.90;;;;;;5012934;28;20062;-79
2021/07/04 10:27:39;;;;;;;5.70;3.22;;;30.60;99.90;;;;;;5012345;28;20097;-78
2021/07/04 10:30:06;;;;;;;5.38;3.10;;;30.80;99.90;;;;;;5013821;28;20402;-78
2021/07/04 10:32:32;;;;;;;2.88;2.40;;;30.80;99.90;;;;;;5013531;28;20057;-79
2021/07/04 10:35:09;;;;;;;3.15;2.10;;;30.90;99.90;;;;;;5013718;28;20127;-74
2021/07/04 10:37:38;;;;;;;3.72;2.50;;;30.90;99.90;;;;;;5014561;28;20488;-79
2021/07/04 10:40:16;;;;;;;6.82;3.05;;;30.90;99.90;;;;;;5014579;28;20494;-79
2021/07/04 10:42:42;;;;;;;2.72;2.20;;;30.70;99.90;;;;;;5013208;28;20084;-80
2021/07/04 10:45:31;;;;;;;10.00;5.15;;;30.70;99.90;;;;;;5014700;28;20077;-79
2021/07/04 10:48:18;;;;;;;15.02;5.47;;;30.60;99.90;;;;;;5013268;28;20022;-79
2021/07/04 10:51:04;;;;;;;7.93;4.18;;;30.60;99.90;;;;;;5013002;28;20060;-80
2021/07/04 10:53:49;;;;;;;5.82;4.43;;;30.80;99.90;;;;;;5012846;28;20117;-82
2021/07/04 10:56:33;;;;;;;4.15;3.03;;;30.90;99.90;;;;;;5012792;28;20029;-82
2021/07/04 10:59:14;;;;;;;5.30;2.88;;;30.90;99.90;;;;;;5012760;28;20053;-80
2021/07/04 11:01:56;;;;;;;8.80;2.30;;;30.80;99.90;;;;;;5012488;28;20026;-80
2021/07/04 11:04:30;;;;;;;3.92;2.25;;;30.90;99.90;;;;;;5011570;28;20402;-81
2021/07/04 11:06:57;;;;;;;7.25;2.17;;;31.10;99.90;;;;;;5010407;28;20025;-78
2021/07/04 11:09:23;;;;;;;6.35;2.30;;;31.10;99.90;;;;;;5012204;28;20133;-81
2021/07/04 11:11:49;;;;;;;4.20;2.20;;;31.20;99.90;;;;;;5012519;28;20038;-79
2021/07/04 11:14:15;;;;;;;4.03;2.35;;;31.20;99.90;;;;;;4995016;28;20104;-77
2021/07/04 11:17:03;;;;;;;2.28;2.03;;;31.30;99.90;;;;;;5012367;28;20490;-77
2021/07/04 11:19:29;;;;;;;5.13;2.40;;;31.20;99.90;;;;;;5011360;28;20088;-75
2021/07/04 11:21:58;;;;;;;2.78;2.50;;;31.20;99.90;;;;;;5011661;28;20022;-80
2021/07/04 11:24:30;;;;;;;4.85;2.45;;;31.40;99.90;;;;;;5012152;28;20041;-76
2021/07/04 11:27:25;;;;;;;6.15;1.90;;;31.40;99.90;;;;;;5009167;28;20032;-79
2021/07/04 11:30:25;;;;;;;6.85;1.92;;;31.20;99.90;;;;;;5011689;28;20033;-77
2021/07/04 11:33:28;;;;;;;5.00;2.05;;;31.20;99.90;;;;;;5011846;28;20577;-79
2021/07/04 11:36:00;;;;;;;6.55;3.50;;;31.20;99.90;;;;;;4995564;28;20038;-79
2021/07/04 11:38:29;;;;;;;6.70;3.53;;;31.30;99.90;;;;;;5011553;28;20045;-82
2021/07/04 11:40:56;;;;;;;17.55;11.07;;;31.40;99.90;;;;;;5011557;28;20034;-77
2021/07/04 11:43:23;;;;;;;9.00;6.07;;;31.30;99.90;;;;;;5011371;28;20029;-80
2021/07/04 11:45:55;;;;;;;11.43;4.50;;;31.50;99.90;;;;;;5011670;28;20045;-80
2021/07/04 11:48:45;;;;;;;2.22;1.63;;;31.60;99.90;;;;;;5012129;28;20028;-79
2021/07/04 11:51:28;;;;;;;6.10;2.47;;;31.30;99.90;;;;;;4984710;28;20036;-80
2021/07/04 11:54:01;;;;;;;7.43;3.38;;;31.00;99.90;;;;;;5011166;28;20490;-82
2021/07/04 11:56:27;;;;;;;4.10;1.60;;;30.90;99.90;;;;;;5011147;28;20034;-81
2021/07/04 11:58:53;;;;;;;2.38;1.50;;;30.90;99.90;;;;;;5011159;28;20037;-80
2021/07/04 12:01:24;;;;;;;9.20;2.90;;;30.90;99.30;;;;;;5011179;28;20014;-80
2021/07/04 12:03:56;;;;;;;10.73;6.68;;;31.00;98.90;;;;;;5011200;28;20022;-79
2021/07/04 12:06:23;;;;;;;11.18;4.75;;;31.00;98.80;;;;;;5009851;28;20491;-81
2021/07/04 12:09:00;;;;;;;6.28;3.63;;;31.00;99.20;;;;;;5011999;28;20478;-80
2021/07/04 12:11:45;;;;;;;6.70;2.40;;;31.20;98.80;;;;;;5010244;28;20029;-79
2021/07/04 12:14:24;;;;;;;3.65;1.75;;;31.30;98.30;;;;;;5010196;28;20017;-80
2021/07/04 12:16:50;;;;;;;2.78;2.08;;;31.40;97.80;;;;;;5011211;28;20065;-81
2021/07/04 12:19:34;;;;;;;5.65;1.60;;;31.40;97.70;;;;;;5011740;28;20482;-77
2021/07/04 12:22:03;;;;;;;3.55;1.92;;;31.10;98.20;;;;;;5011525;28;20034;-80
2021/07/04 12:24:46;;;;;;;2.60;1.65;;;31.00;98.10;;;;;;5012431;28;20116;-80
2021/07/04 12:27:12;;;;;;;7.88;2.20;;;31.00;98.10;;;;;;5010555;28;20032;-80
2021/07/04 12:30:07;;;;;;;2.88;1.50;;;31.00;97.70;;;;;;5011019;28;20109;-80
2021/07/04 12:32:44;;;;;;;3.60;1.70;;;31.00;96.90;;;;;;5010515;28;20037;-79
2021/07/04 12:35:40;;;;;;;2.63;1.65;;;30.70;97.40;;;;;;5009821;28;20017;-80
2021/07/04 12:38:16;;;;;;;3.08;1.90;;;30.60;97.70;;;;;;5001031;28;20041;-81
2021/07/04 12:41:04;;;;;;;3.67;2.30;;;30.70;97.90;;;;;;5010047;28;20065;-80
2021/07/04 12:43:36;;;;;;;7.88;2.10;;;30.70;98.10;;;;;;5009305;28;20104;-80
2021/07/04 12:46:25;;;;;;;5.00;1.80;;;30.80;97.90;;;;;;5008348;28;20490;-79
2021/07/04 12:48:54;;;;;;;2.78;1.77;;;30.70;97.60;;;;;;5009258;28;20390;-80
2021/07/04 12:51:27;;;;;;;2.97;1.20;;;30.70;98.20;;;;;;5010506;28;20022;-80
2021/07/04 12:53:53;;;;;;;4.03;1.98;;;30.70;97.90;;;;;;5011208;28;20486;-78
2021/07/04 12:56:30;;;;;;;8.23;1.92;;;30.80;98.20;;;;;;5011407;28;20036;-79